Terminal Aerodrome Forecast
Issued by NWS

Home | Current Version | Previous Version | Text Only | Print | Product List | Glossary On
Versions: 1 2 3 4 5 6 7 8 9 10 11 12 13 14 15
000
FTUS43 KAPX 221120
TAFMBL
TAF
KMBL 221120Z 2212/2312 15008KT P6SM BKN050 WS020/21040KT
     FM221500 17013G21KT P6SM BKN050
     FM221900 21010G17KT 5SM -SHRA OVC025
     FM222200 29008KT 3SM -SHRA OVC010
     FM230000 32006KT 4SM -SHRA OVC010
     FM230600 30005KT P6SM OVC015=

USA.gov is the U.S. government's official web portal to all federal, state and local government web resources and services.